Time;durP1;ratioP1;P1;durP2;ratioP2;P2;SDS_P1;SDS_P2;PMS_P1;PMS_P2;Temp;Humidity;BMP_temperature;BMP_pressure;BME280_temperature;BME280_humidity;BME280_pressure;Samples;Min_cycle;Max_cycle;Signal;HPM_P1;HPM_P2
2023/01/12 00:02:07;;;;;;;8.82;3.15;;;;;;;16.83;60.01;100793.75;5024980;28;20027;-74
2023/01/12 00:04:32;;;;;;;8.27;3.13;;;;;;;16.84;59.86;100792.88;5057780;28;20029;-77
2023/01/12 00:06:58;;;;;;;7.10;2.90;;;;;;;16.83;59.81;100781.63;5075674;28;20423;-76
2023/01/12 00:09:25;;;;;;;8.70;3.15;;;;;;;16.82;59.91;100787.69;5041027;28;20021;-76
2023/01/12 00:11:50;;;;;;;9.13;2.80;;;;;;;16.82;60.04;100787.69;5040884;28;20036;-76
2023/01/12 00:14:16;;;;;;;10.00;3.13;;;;;;;16.82;59.77;100787.69;5057619;28;20466;-76
2023/01/12 00:16:42;;;;;;;6.05;2.72;;;;;;;16.82;59.77;100777.28;5024468;28;20059;-77
2023/01/12 00:19:16;;;;;;;5.50;2.83;;;;;;;16.82;59.94;100766.03;5075326;28;20027;-76
2023/01/12 00:21:55;;;;;;;8.52;2.80;;;;;;;16.82;59.75;100763.44;5057381;28;20017;-77
2023/01/12 00:24:26;;;;;;;8.20;3.00;;;;;;;16.81;59.81;100753.91;5075557;28;20103;-76
2023/01/12 00:26:52;;;;;;;7.43;2.90;;;;;;;16.81;59.96;100749.59;5075621;28;20029;-76
2023/01/12 00:29:19;;;;;;;8.57;3.10;;;;;;;16.83;59.69;100746.97;5058106;28;20024;-76
2023/01/12 00:31:45;;;;;;;11.50;3.35;;;;;;;16.82;59.93;100747.84;5040845;28;20028;-77
2023/01/12 00:34:10;;;;;;;5.30;2.70;;;;;;;16.81;59.83;100744.41;5057028;28;20371;-76
2023/01/12 00:36:36;;;;;;;7.07;2.65;;;;;;;16.81;59.86;100739.19;5040831;28;20046;-76
2023/01/12 00:39:02;;;;;;;8.15;2.95;;;;;;;16.81;59.70;100733.13;5040569;28;20072;-74
2023/01/12 00:46:55;;;;;;;;;;;;;;;16.81;59.63;100723.59;5046480;28;20078;-76
2023/01/12 00:49:21;;;;;;;6.70;2.72;;;;;;;16.82;59.71;100714.06;5040167;28;19920;-76
2023/01/12 00:51:46;;;;;;;8.45;2.90;;;;;;;16.82;59.62;100721.88;5040097;28;20029;-76
2023/01/12 00:54:11;;;;;;;8.68;3.00;;;;;;;16.80;59.65;100708.00;5053207;28;20060;-76
2023/01/12 00:56:38;;;;;;;7.82;2.63;;;;;;;16.80;59.45;100698.47;5055181;28;20463;-76
2023/01/12 00:59:04;;;;;;;8.88;2.95;;;;;;;16.80;59.64;100697.63;5053421;28;20028;-76
2023/01/12 01:01:31;;;;;;;8.82;3.00;;;;;;;16.80;59.63;100700.22;5053437;28;20017;-75
2023/01/12 01:03:56;;;;;;;7.70;2.60;;;;;;;16.80;59.49;100701.06;5053309;28;20463;-76
2023/01/12 01:06:22;;;;;;;8.35;3.53;;;;;;;16.80;59.85;100692.44;5036891;28;20086;-77
2023/01/12 01:08:48;;;;;;;9.07;3.28;;;;;;;16.80;59.60;100688.06;5052166;28;20360;-76
2023/01/12 01:11:14;;;;;;;6.88;2.72;;;;;;;16.79;59.51;100677.69;5036510;28;20487;-76
2023/01/12 01:13:42;;;;;;;8.02;2.85;;;;;;;16.80;59.49;100669.88;5053220;28;20017;-76
2023/01/12 01:16:10;;;;;;;6.32;2.65;;;;;;;16.80;59.53;100684.63;5053112;28;20025;-77
2023/01/12 01:18:36;;;;;;;8.00;2.53;;;;;;;16.79;59.41;100667.28;5053005;28;20479;-77
2023/01/12 01:21:03;;;;;;;9.13;3.03;;;;;;;16.79;59.57;100669.91;5053274;28;20048;-77
2023/01/12 01:23:28;;;;;;;7.63;2.78;;;;;;;16.79;59.68;100662.94;5054384;28;20049;-77
2023/01/12 01:25:54;;;;;;;8.90;2.97;;;;;;;16.78;59.72;100666.41;5054198;28;20425;-77
2023/01/12 01:28:20;;;;;;;6.60;2.70;;;;;;;16.79;59.50;100665.56;5036244;28;20036;-77
2023/01/12 01:30:46;;;;;;;6.72;2.85;;;;;;;16.79;59.54;100662.94;5054033;28;20032;-76
2023/01/12 01:33:13;;;;;;;8.63;2.92;;;;;;;16.79;59.56;100643.91;5036270;28;20029;-76
2023/01/12 01:35:38;;;;;;;7.95;2.88;;;;;;;16.79;59.32;100649.97;5036591;28;20041;-78
2023/01/12 01:38:04;;;;;;;6.57;2.70;;;;;;;16.79;59.65;100636.97;5052829;28;20037;-78
2023/01/12 01:40:30;;;;;;;6.85;2.63;;;;;;;16.78;59.50;100640.41;5053110;28;20033;-77
2023/01/12 01:42:56;;;;;;;9.27;2.75;;;;;;;16.79;59.54;100636.97;5054164;28;20024;-78
2023/01/12 01:45:21;;;;;;;9.43;2.80;;;;;;;16.79;59.54;100629.16;5036256;28;20032;-76
2023/01/12 01:48:00;;;;;;;6.88;2.88;;;;;;;16.79;59.65;100630.91;5036121;28;20029;-77
2023/01/12 01:50:33;;;;;;;7.85;2.70;;;;;;;16.78;59.55;100605.78;5052529;28;20044;-76
2023/01/12 01:53:03;;;;;;;7.78;2.90;;;;;;;16.77;59.59;100599.72;5052828;28;20066;-75
2023/01/12 01:55:35;;;;;;;8.50;2.92;;;;;;;16.78;59.63;100610.97;5070040;28;20059;-75
2023/01/12 01:58:09;;;;;;;8.27;2.92;;;;;;;16.77;59.53;100612.72;5055642;28;20112;-75
2023/01/12 02:00:37;;;;;;;8.40;2.53;;;;;;;16.78;59.70;100600.59;5073732;28;20379;-76
2023/01/12 02:03:05;;;;;;;8.45;2.90;;;;;;;16.77;59.72;100591.94;5073501;28;20051;-76
2023/01/12 02:05:31;;;;;;;6.95;2.78;;;;;;;16.78;59.73;100590.19;5055676;28;20031;-78
2023/01/12 02:08:04;;;;;;;7.20;2.75;;;;;;;16.77;59.67;100589.34;5055691;28;20028;-77
2023/01/12 02:10:29;;;;;;;7.38;2.97;;;;;;;16.77;59.45;100586.75;5073496;28;20024;-77
2023/01/12 02:18:55;;;;;;;7.95;2.88;;;;;;;16.77;59.68;100550.38;5073659;28;20032;-77
2023/01/12 02:21:29;;;;;;;7.40;2.78;;;;;;;16.77;59.56;100552.09;5059803;28;20475;-76
2023/01/12 02:24:18;;;;;;;8.23;3.20;;;;;;;16.77;59.47;100536.50;5059695;28;20043;-78
2023/01/12 02:27:08;;;;;;;8.00;2.90;;;;;;;16.77;59.72;100539.13;5059673;28;20059;-78
2023/01/12 02:30:13;;;;;;;8.35;2.85;;;;;;;16.76;59.61;100534.78;5077415;28;20024;-78
2023/01/12 02:32:51;;;;;;;8.32;3.10;;;;;;;16.76;59.74;100525.22;5038794;28;20115;-79
2023/01/12 02:35:42;;;;;;;7.05;2.83;;;;;;;16.76;59.62;100521.78;5077406;28;20032;-78
2023/01/12 02:38:32;;;;;;;9.15;3.08;;;;;;;16.76;59.50;100519.19;5059772;28;20036;-79
2023/01/12 02:41:00;;;;;;;6.60;2.55;;;;;;;16.75;59.67;100507.94;5078887;28;20378;-77
2023/01/12 02:43:31;;;;;;;7.63;2.65;;;;;;;16.76;59.42;100514.84;5061044;28;20382;-78
2023/01/12 02:46:03;;;;;;;9.38;3.25;;;;;;;16.75;59.38;100507.09;5078690;28;20024;-78
2023/01/12 02:48:42;;;;;;;8.45;2.75;;;;;;;16.75;59.60;100500.16;5060173;28;20028;-77
2023/01/12 02:51:13;;;;;;;9.35;3.03;;;;;;;16.75;59.54;100507.94;5077269;28;20109;-77
2023/01/12 02:53:48;;;;;;;7.63;3.28;;;;;;;16.74;59.35;100498.41;5076994;28;20020;-77
2023/01/12 02:56:20;;;;;;;7.15;2.80;;;;;;;16.74;59.64;100495.81;5077198;28;20043;-78
2023/01/12 02:58:53;;;;;;;8.95;3.10;;;;;;;16.75;59.39;100466.38;5058914;28;20417;-78
2023/01/12 03:01:21;;;;;;;7.90;2.92;;;;;;;16.74;59.51;100472.41;5058948;28;20028;-77
2023/01/12 03:03:48;;;;;;;6.20;2.53;;;;;;;16.74;59.45;100454.22;5076934;28;20029;-77
2023/01/12 03:06:16;;;;;;;10.32;3.10;;;;;;;16.75;59.54;100439.53;5042362;28;20032;-77
2023/01/12 03:08:42;;;;;;;7.43;2.92;;;;;;;16.74;59.63;100430.00;5042145;28;20554;-79
2023/01/12 03:11:15;;;;;;;7.65;3.00;;;;;;;16.74;59.50;100430.00;5058703;28;20032;-78
2023/01/12 03:13:55;;;;;;;6.82;2.53;;;;;;;16.73;59.41;100407.50;5058859;28;20471;-78
2023/01/12 03:16:25;;;;;;;7.97;2.95;;;;;;;16.74;59.67;100404.00;5076700;28;20418;-79
2023/01/12 03:18:56;;;;;;;9.25;2.95;;;;;;;16.74;59.74;100381.47;5058721;28;20509;-78
2023/01/12 03:21:31;;;;;;;8.43;2.85;;;;;;;16.73;59.46;100366.78;5058822;28;20032;-80
2023/01/12 03:24:20;;;;;;;8.45;2.78;;;;;;;16.72;59.50;100344.25;5076487;28;20027;-78
2023/01/12 03:26:52;;;;;;;7.22;2.88;;;;;;;16.73;59.62;100321.75;5058686;28;20026;-78
2023/01/12 03:29:42;;;;;;;7.97;2.78;;;;;;;16.73;59.41;100308.78;5058569;28;20031;-78
2023/01/12 03:32:08;;;;;;;6.00;2.70;;;;;;;16.72;59.49;100292.31;5057143;28;20031;-78
2023/01/12 03:34:36;;;;;;;7.13;2.70;;;;;;;16.73;59.47;100298.38;5041825;28;20118;-78
2023/01/12 03:37:23;;;;;;;7.97;2.90;;;;;;;16.72;59.64;100279.31;5058600;28;20032;-77
2023/01/12 03:40:21;;;;;;;6.82;2.78;;;;;;;16.72;59.36;100276.72;5058384;28;20410;-77
2023/01/12 03:42:54;;;;;;;6.80;2.70;;;;;;;16.73;59.47;100260.25;5058816;28;20344;-77
2023/01/12 03:45:27;;;;;;;7.65;2.97;;;;;;;16.72;59.52;100255.91;5058173;28;20027;-77
2023/01/12 03:48:06;;;;;;;5.68;2.40;;;;;;;16.72;59.46;100236.88;5058249;28;20475;-78
2023/01/12 03:50:44;;;;;;;8.23;2.63;;;;;;;16.71;59.30;100214.41;5076360;28;20374;-79
2023/01/12 03:53:11;;;;;;;7.93;2.90;;;;;;;16.71;59.72;100214.41;5076103;28;20475;-78
2023/01/12 03:55:37;;;;;;;7.07;2.65;;;;;;;16.71;59.59;100215.25;5041207;28;20063;-78
2023/01/12 03:58:04;;;;;;;9.60;2.90;;;;;;;16.71;59.14;100212.66;5058129;28;20029;-77
2023/01/12 04:00:29;;;;;;;8.57;2.60;;;;;;;16.72;59.48;100211.75;5057807;28;20378;-77
2023/01/12 04:03:12;;;;;;;5.53;2.40;;;;;;;16.71;59.61;100194.47;5058030;28;20029;-78
2023/01/12 04:05:38;;;;;;;5.78;2.40;;;;;;;16.72;59.46;100195.31;5075740;28;20823;-79
2023/01/12 04:08:04;;;;;;;5.60;2.33;;;;;;;16.71;59.20;100191.88;5057629;28;20028;-78
2023/01/12 04:10:30;;;;;;;6.38;2.22;;;;;;;16.71;59.47;100194.47;5041107;28;20085;-78
2023/01/12 04:12:55;;;;;;;5.30;2.13;;;;;;;16.70;59.48;100182.38;5040765;28;20024;-78
2023/01/12 04:15:21;;;;;;;5.78;2.33;;;;;;;16.70;59.54;100179.78;5057880;28;20051;-78
2023/01/12 04:17:46;;;;;;;5.60;2.30;;;;;;;16.71;59.62;100181.47;5024762;28;20132;-78
2023/01/12 04:20:12;;;;;;;5.15;2.20;;;;;;;16.69;59.48;100169.41;5040581;28;20470;-77
2023/01/12 04:22:43;;;;;;;5.30;2.05;;;;;;;16.70;59.33;100181.50;5040797;28;20024;-77
2023/01/12 04:25:15;;;;;;;5.65;2.00;;;;;;;16.69;59.23;100170.25;5025967;28;20077;-78
2023/01/12 04:28:00;;;;;;;4.82;2.20;;;;;;;16.70;59.29;100165.91;5075150;28;20165;-80
2023/01/12 04:30:26;;;;;;;4.20;1.88;;;;;;;16.69;59.59;100157.25;5057353;28;20507;-78
2023/01/12 04:32:53;;;;;;;6.88;2.38;;;;;;;16.70;59.39;100155.50;5075162;28;20028;-79
2023/01/12 04:35:18;;;;;;;5.15;2.00;;;;;;;16.70;59.64;100158.09;5057126;28;20544;-78
2023/01/12 04:37:44;;;;;;;6.30;2.22;;;;;;;16.69;59.61;100141.66;5057303;28;20028;-78
2023/01/12 04:40:12;;;;;;;5.72;1.98;;;;;;;16.69;59.41;100139.06;5040430;28;20025;-79
2023/01/12 04:45:22;;;;;;;4.75;1.90;;;;;;;16.69;59.67;100175.44;5059916;28;20032;-78
2023/01/12 04:47:47;;;;;;;4.72;2.38;;;;;;;16.69;59.50;100156.41;5040211;28;20398;-79
2023/01/12 04:50:13;;;;;;;4.60;2.13;;;;;;;16.69;59.51;100159.84;5023510;28;20033;-78
2023/01/12 04:52:39;;;;;;;5.03;1.83;;;;;;;16.68;59.59;100181.53;5056853;28;20024;-78
2023/01/12 04:55:05;;;;;;;4.28;1.73;;;;;;;16.70;59.67;100165.91;5057015;28;20503;-78
2023/01/12 04:57:30;;;;;;;4.78;1.70;;;;;;;16.69;59.55;100162.44;5056994;28;20502;-77
2023/01/12 04:59:56;;;;;;;4.18;1.60;;;;;;;16.69;59.27;100159.00;5056898;28;20115;-78
2023/01/12 05:02:21;;;;;;;6.15;2.15;;;;;;;16.67;59.10;100151.22;5040206;28;20094;-78
2023/01/12 05:04:47;;;;;;;5.50;1.92;;;;;;;16.68;59.43;100147.75;5056705;28;20020;-80
2023/01/12 05:07:13;;;;;;;4.60;1.80;;;;;;;16.68;59.38;100150.38;5056758;28;20021;-78
2023/01/12 05:12:22;;;;;;;;;;;;;;;16.69;59.63;100154.66;5045673;28;20124;-77
2023/01/12 05:14:49;;;;;;;4.22;1.42;;;;;;;16.70;59.45;100161.59;5074558;28;19955;-79
2023/01/12 05:17:15;;;;;;;4.80;1.80;;;;;;;16.71;59.49;100160.69;5056417;28;20132;-78
2023/01/12 05:19:40;;;;;;;4.25;1.65;;;;;;;16.72;59.50;100162.38;5056546;28;20471;-78
2023/01/12 05:22:06;;;;;;;4.10;1.73;;;;;;;16.73;59.45;100165.88;5040254;28;20107;-77
2023/01/12 05:24:31;;;;;;;4.80;1.75;;;;;;;16.74;59.45;100160.63;5039884;28;20119;-78
2023/01/12 05:26:57;;;;;;;4.63;1.73;;;;;;;16.74;59.52;100162.38;5057865;28;20060;-79
2023/01/12 05:29:22;;;;;;;4.07;1.80;;;;;;;16.75;59.58;100153.72;5058495;28;20032;-75
2023/01/12 05:31:48;;;;;;;3.75;1.55;;;;;;;16.76;59.40;100155.41;5039681;28;20033;-74
2023/01/12 05:34:18;;;;;;;3.97;1.60;;;;;;;16.77;59.67;100180.53;5039745;28;20029;-75
2023/01/12 05:36:43;;;;;;;4.47;1.77;;;;;;;16.77;59.59;100167.53;5074021;28;20028;-76
2023/01/12 05:39:09;;;;;;;3.55;1.80;;;;;;;16.77;59.58;100157.16;5022866;28;20035;-77
2023/01/12 05:41:34;;;;;;;4.20;1.80;;;;;;;16.78;59.54;100158.84;5074167;28;20035;-76
2023/01/12 05:43:59;;;;;;;4.25;1.80;;;;;;;16.78;59.50;100164.91;5056060;28;20050;-76
2023/01/12 05:46:28;;;;;;;3.40;1.60;;;;;;;16.79;59.49;100157.97;5055935;28;20071;-76
2023/01/12 05:48:55;;;;;;;3.38;1.60;;;;;;;16.79;59.68;100152.78;5055781;28;20440;-78
2023/01/12 05:51:20;;;;;;;3.25;1.55;;;;;;;16.79;59.83;100145.00;5073891;28;20222;-78
2023/01/12 05:53:46;;;;;;;3.42;1.55;;;;;;;16.79;59.43;100139.78;5055382;28;20534;-78
2023/01/12 05:56:24;;;;;;;4.80;1.55;;;;;;;16.79;59.81;100166.63;5055405;28;20047;-78
2023/01/12 05:58:58;;;;;;;4.95;1.67;;;;;;;16.79;59.84;100160.56;5055702;28;20033;-77
2023/01/12 06:01:24;;;;;;;3.42;1.60;;;;;;;16.80;59.82;100136.31;5055719;28;20020;-79
2023/01/12 06:03:51;;;;;;;11.50;3.90;;;;;;;16.81;59.80;100156.22;5055925;28;20028;-78
2023/01/12 06:06:18;;;;;;;14.45;4.78;;;;;;;16.82;59.91;100148.41;5073693;28;20530;-78
2023/01/12 06:08:44;;;;;;;22.25;7.57;;;;;;;16.85;59.96;100156.16;5055849;28;20028;-78
2023/01/12 06:13:55;;;;;;;29.10;9.88;;;;;;;16.88;59.98;100152.66;5039491;28;20024;-78
2023/01/12 06:13:56;;;;;;;26.63;8.90;;;;;;;16.88;60.00;100165.66;5073733;28;20044;-80
2023/01/12 06:16:21;;;;;;;23.23;9.05;;;;;;;16.88;60.31;100165.66;5038999;28;20032;-86
2023/01/12 06:18:46;;;;;;;21.92;7.63;;;;;;;16.89;60.03;100156.94;5055933;28;20039;-76
2023/01/12 06:21:12;;;;;;;23.98;7.72;;;;;;;16.91;60.18;100155.19;5055268;28;20028;-76
2023/01/12 06:23:37;;;;;;;18.08;7.35;;;;;;;16.92;60.34;100167.31;5055417;28;20070;-77
2023/01/12 06:26:04;;;;;;;20.40;7.40;;;;;;;16.94;60.34;100162.94;5038875;28;20028;-76
2023/01/12 06:28:30;;;;;;;28.15;7.38;;;;;;;16.93;60.57;100150.81;5055397;28;20443;-76
2023/01/12 06:31:00;;;;;;;21.30;7.38;;;;;;;16.93;60.49;100144.78;5038698;28;20056;-76
2023/01/12 06:33:26;;;;;;;18.88;6.95;;;;;;;16.92;60.45;100169.91;5055198;28;20021;-77
2023/01/12 06:35:53;;;;;;;18.30;6.80;;;;;;;16.93;60.62;100161.22;5038705;28;20029;-76
2023/01/12 06:38:19;;;;;;;19.08;6.88;;;;;;;16.94;60.57;100175.06;5055231;28;20029;-76
2023/01/12 06:40:44;;;;;;;15.52;6.57;;;;;;;16.94;60.47;100159.47;5055648;28;20081;-77
2023/01/12 06:43:09;;;;;;;13.65;6.38;;;;;;;16.94;60.74;100156.88;5038805;28;20024;-76
2023/01/12 06:45:35;;;;;;;15.40;5.82;;;;;;;16.93;60.82;100163.81;5038759;28;20039;-76
2023/01/12 06:48:00;;;;;;;17.60;6.30;;;;;;;16.92;60.79;100156.91;5038692;28;20486;-76
2023/01/12 06:50:26;;;;;;;18.25;6.50;;;;;;;16.94;60.82;100155.16;5038763;28;20032;-76
2023/01/12 06:52:51;;;;;;;15.77;6.60;;;;;;;16.95;60.89;100162.03;5055202;28;20163;-76
2023/01/12 06:55:17;;;;;;;16.38;6.15;;;;;;;16.97;60.98;100164.63;5022110;28;20107;-76
2023/01/12 06:57:42;;;;;;;16.42;6.05;;;;;;;16.98;61.29;100168.94;5073194;28;20082;-76
2023/01/12 07:00:11;;;;;;;14.55;5.93;;;;;;;16.98;61.00;100172.38;5038747;28;20103;-76
2023/01/12 07:02:37;;;;;;;15.05;5.80;;;;;;;16.99;60.72;100179.31;5055221;28;20112;-76
2023/01/12 07:05:03;;;;;;;16.50;6.25;;;;;;;16.99;60.95;100179.31;5038624;28;20115;-76
2023/01/12 07:07:28;;;;;;;14.75;5.30;;;;;;;16.99;60.91;100184.50;5058689;28;20405;-75
2023/01/12 07:09:54;;;;;;;14.27;5.90;;;;;;;16.98;60.85;100193.16;5041939;28;20105;-77
2023/01/12 07:12:19;;;;;;;14.73;5.38;;;;;;;16.98;61.10;100193.16;5058420;28;20036;-75
2023/01/12 07:14:44;;;;;;;12.40;5.68;;;;;;;16.99;61.22;100191.44;5025419;28;20035;-75
2023/01/12 07:17:11;;;;;;;11.95;4.53;;;;;;;17.00;60.85;100198.34;5041836;28;20060;-76
2023/01/12 07:19:37;;;;;;;16.15;5.68;;;;;;;16.99;60.93;100197.50;5058674;28;20057;-77
2023/01/12 07:22:02;;;;;;;12.13;5.13;;;;;;;16.99;61.03;100207.91;5041984;28;20048;-77
2023/01/12 07:24:27;;;;;;;15.25;5.60;;;;;;;16.99;60.99;100205.28;5041997;28;20039;-77
2023/01/12 07:26:53;;;;;;;13.80;5.07;;;;;;;16.99;61.21;100205.28;5041907;28;20031;-77
2023/01/12 07:29:18;;;;;;;12.70;5.07;;;;;;;16.99;61.14;100209.66;5025386;28;20032;-77
2023/01/12 07:31:44;;;;;;;11.23;4.85;;;;;;;17.00;61.08;100220.00;5041740;28;20052;-77
2023/01/12 07:34:10;;;;;;;12.25;4.88;;;;;;;16.99;61.06;100218.28;5041811;28;20428;-76
2023/01/12 07:36:35;;;;;;;11.57;5.00;;;;;;;16.99;61.08;100207.91;5042154;28;20395;-75
2023/01/12 07:39:01;;;;;;;12.90;5.20;;;;;;;16.99;60.84;100213.09;5041505;28;20032;-76
2023/01/12 07:44:10;;;;;;;9.32;4.40;;;;;;;17.01;61.09;100219.13;5046870;28;20040;-76
2023/01/12 07:46:36;;;;;;;12.18;4.78;;;;;;;17.01;60.93;100223.47;5041325;28;20040;-77
2023/01/12 07:49:01;;;;;;;11.45;4.90;;;;;;;17.01;61.29;100226.91;5058131;28;20046;-76
2023/01/12 07:51:27;;;;;;;9.32;4.70;;;;;;;17.01;61.13;100221.72;5057752;28;20029;-77
2023/01/12 07:53:52;;;;;;;10.82;4.60;;;;;;;17.01;60.79;100226.91;5041098;28;20027;-76
2023/01/12 07:56:18;;;;;;;12.52;4.78;;;;;;;17.02;61.26;100235.56;5040939;28;20098;-76
2023/01/12 07:58:46;;;;;;;10.38;4.65;;;;;;;17.02;61.21;100241.63;5041008;28;20064;-77
2023/01/12 08:01:12;;;;;;;10.48;4.03;;;;;;;17.03;61.05;100263.31;5075696;28;20020;-76
2023/01/12 08:03:38;;;;;;;9.20;4.68;;;;;;;17.03;61.05;100255.50;5024446;28;20047;-75
2023/01/12 08:06:03;;;;;;;10.32;4.28;;;;;;;17.03;61.20;100258.94;5041135;28;20039;-77
2023/01/12 08:08:29;;;;;;;11.95;4.30;;;;;;;17.03;61.43;100277.16;5057768;28;20032;-76
2023/01/12 08:11:00;;;;;;;8.98;3.85;;;;;;;17.03;60.86;100282.34;5040629;28;20021;-75
2023/01/12 08:13:25;;;;;;;11.50;4.25;;;;;;;17.04;61.04;100278.84;5042251;28;20025;-76
2023/01/12 08:15:51;;;;;;;8.18;3.50;;;;;;;17.03;61.29;100284.94;5057961;28;20024;-75
2023/01/12 08:18:24;;;;;;;10.00;4.40;;;;;;;17.04;61.24;100291.00;5040663;28;20111;-76
2023/01/12 08:20:51;;;;;;;9.68;4.25;;;;;;;17.04;60.94;100280.59;5058010;28;20020;-75
2023/01/12 08:23:30;;;;;;;9.10;4.10;;;;;;;17.04;60.88;100285.78;5041108;28;20431;-76
2023/01/12 08:26:00;;;;;;;10.38;4.05;;;;;;;17.04;60.88;100281.44;5075068;28;20021;-76
2023/01/12 08:28:36;;;;;;;8.13;3.90;;;;;;;17.06;61.38;100291.84;5074953;28;20074;-77
2023/01/12 08:31:02;;;;;;;10.60;4.47;;;;;;;17.06;60.82;100277.09;5074914;28;20478;-75
2023/01/12 08:33:28;;;;;;;7.80;3.65;;;;;;;17.06;61.30;100284.88;5074879;28;20058;-77
2023/01/12 08:35:53;;;;;;;9.98;4.20;;;;;;;17.08;61.09;100289.22;5040457;28;20036;-76
2023/01/12 08:38:19;;;;;;;10.20;4.32;;;;;;;17.07;60.93;100290.94;5056808;28;20024;-77
2023/01/12 08:46:12;;;;;;;8.40;3.50;;;;;;;17.08;61.19;100299.63;5059836;28;20035;-75
2023/01/12 08:48:38;;;;;;;6.25;3.50;;;;;;;17.11;60.86;100297.81;5056937;28;20115;-76
2023/01/12 08:51:05;;;;;;;8.15;3.60;;;;;;;17.12;61.11;100307.34;5056656;28;20032;-75
2023/01/12 08:53:30;;;;;;;7.68;3.38;;;;;;;17.14;60.95;100299.53;5040147;28;20032;-76
2023/01/12 08:55:56;;;;;;;9.77;3.38;;;;;;;17.15;60.94;100307.28;5036635;28;20075;-75
2023/01/12 08:58:21;;;;;;;16.23;7.25;;;;;;;17.17;60.99;100305.50;5053331;28;20057;-76
2023/01/12 09:00:47;;;;;;;13.38;5.65;;;;;;;17.20;60.95;100296.78;5054568;28;20071;-77
2023/01/12 09:03:13;;;;;;;13.75;5.78;;;;;;;17.19;61.02;100298.53;5036514;28;20032;-76
2023/01/12 09:05:38;;;;;;;13.68;5.53;;;;;;;17.18;60.98;100301.16;5053087;28;20056;-75
2023/01/12 09:08:04;;;;;;;13.50;5.70;;;;;;;17.16;60.87;100321.13;5036545;28;20025;-77
2023/01/12 09:10:29;;;;;;;12.73;5.13;;;;;;;17.16;61.16;100315.94;5019886;28;20124;-77
2023/01/12 09:12:55;;;;;;;12.40;4.93;;;;;;;17.15;61.02;100324.63;5019984;28;20064;-76
2023/01/12 09:15:21;;;;;;;11.02;4.30;;;;;;;17.17;61.02;100322.84;5053085;28;20039;-76
2023/01/12 09:17:51;;;;;;;13.02;5.00;;;;;;;17.16;60.97;100335.00;5052885;28;20029;-77
2023/01/12 09:20:17;;;;;;;12.02;4.72;;;;;;;17.16;60.80;100329.81;5036086;28;20028;-77
2023/01/12 09:22:42;;;;;;;10.85;4.35;;;;;;;17.17;60.81;100346.25;5052725;28;20042;-76
2023/01/12 09:25:08;;;;;;;9.13;4.25;;;;;;;17.17;60.89;100339.31;5036575;28;20445;-77
2023/01/12 09:27:33;;;;;;;10.73;3.80;;;;;;;17.18;60.97;100355.75;5052842;28;20033;-77
2023/01/12 09:29:58;;;;;;;10.07;4.47;;;;;;;17.17;60.98;100359.25;5035461;28;20051;-75
2023/01/12 09:32:24;;;;;;;11.00;4.30;;;;;;;17.18;60.83;100367.03;5052762;28;20025;-76
2023/01/12 09:34:49;;;;;;;10.43;4.13;;;;;;;17.18;61.13;100368.75;5019525;28;20463;-76
2023/01/12 09:37:15;;;;;;;9.43;4.25;;;;;;;17.18;60.89;100358.38;5035858;28;20116;-76
2023/01/12 09:39:40;;;;;;;8.10;4.13;;;;;;;17.18;60.98;100373.97;5052943;28;20494;-77
2023/01/12 09:48:00;;;;;;;9.60;4.10;;;;;;;17.21;60.69;100377.38;5053926;28;20123;-76
2023/01/12 09:50:30;;;;;;;7.18;3.30;;;;;;;17.22;61.01;100379.13;5036197;28;20039;-75
2023/01/12 09:53:18;;;;;;;8.70;3.90;;;;;;;17.23;60.90;100380.81;5052331;28;20029;-76
2023/01/12 09:56:02;;;;;;;9.32;3.65;;;;;;;17.21;60.63;100380.00;5052125;28;20160;-77
2023/01/12 09:58:33;;;;;;;;;;;;;;;17.22;61.00;100386.91;5052826;28;20099;-76
2023/01/12 10:01:01;;;;;;;8.68;4.03;;;;;;;17.24;60.74;100392.94;5052265;28;19995;-77
2023/01/12 10:03:40;;;;;;;9.18;4.18;;;;;;;17.23;60.87;100401.63;5052360;28;20075;-77
2023/01/12 10:06:12;;;;;;;6.93;3.63;;;;;;;17.22;60.87;100380.84;5053358;28;20375;-77
2023/01/12 10:08:42;;;;;;;9.97;3.80;;;;;;;17.22;60.76;100399.94;5052407;28;20594;-77
2023/01/12 10:11:13;;;;;;;9.68;4.18;;;;;;;17.21;60.84;100395.59;5051982;28;20025;-76
2023/01/12 10:13:58;;;;;;;7.55;3.67;;;;;;;17.22;60.78;100393.84;5053233;28;20108;-76
2023/01/12 10:16:34;;;;;;;8.80;3.90;;;;;;;17.22;60.93;100407.72;5021652;28;20064;-76
2023/01/12 10:19:06;;;;;;;8.50;3.90;;;;;;;17.22;60.94;100404.25;5051768;28;20106;-78
2023/01/12 10:21:33;;;;;;;10.13;4.13;;;;;;;17.22;60.90;100410.31;5051962;28;20021;-77
2023/01/12 10:23:58;;;;;;;7.97;3.47;;;;;;;17.24;60.93;100407.69;5035493;28;20116;-77
2023/01/12 10:26:28;;;;;;;15.27;4.18;;;;;;;17.20;60.91;100421.59;5035413;28;20120;-77
2023/01/12 10:28:55;;;;;;;8.50;3.85;;;;;;;17.18;60.88;100407.75;5051782;28;20029;-78
2023/01/12 10:31:25;;;;;;;8.85;3.83;;;;;;;17.16;60.92;100413.00;5035366;28;20115;-77
2023/01/12 10:34:20;;;;;;;9.27;3.45;;;;;;;17.16;60.93;100412.13;5035763;28;20029;-78
2023/01/12 10:36:56;;;;;;;8.88;3.90;;;;;;;17.16;60.80;100414.72;5039247;28;20040;-77
2023/01/12 10:39:33;;;;;;;10.30;3.30;;;;;;;17.15;60.69;100416.47;5053225;28;20029;-76
2023/01/12 10:45:14;;;;;;;11.13;4.30;;;;;;;17.15;60.89;100426.03;5057268;28;20036;-77
2023/01/12 10:47:41;;;;;;;9.50;3.93;;;;;;;17.15;60.88;100420.81;5055802;28;20036;-77
2023/01/12 10:50:22;;;;;;;10.05;4.00;;;;;;;17.13;60.78;100415.63;5056942;28;20391;-77
2023/01/12 10:52:52;;;;;;;9.02;3.70;;;;;;;17.13;60.88;100423.44;5055644;28;20036;-77
2023/01/12 10:55:22;;;;;;;9.25;3.80;;;;;;;17.14;61.15;100424.31;5039249;28;20045;-77
2023/01/12 10:57:50;;;;;;;7.97;3.47;;;;;;;17.12;61.02;100418.28;5038817;28;20364;-77
2023/01/12 11:00:24;;;;;;;11.63;3.88;;;;;;;17.13;60.81;100419.97;5055631;28;20413;-76
2023/01/12 11:02:50;;;;;;;8.02;3.60;;;;;;;17.12;60.87;100418.28;5055877;28;20353;-76
2023/01/12 11:05:35;;;;;;;7.90;3.67;;;;;;;17.12;60.65;100410.47;5039965;28;20025;-77
2023/01/12 11:08:01;;;;;;;9.50;3.53;;;;;;;17.12;60.77;100406.13;5056104;28;20024;-77
2023/01/12 11:10:30;;;;;;;8.23;3.50;;;;;;;17.13;60.89;100412.19;5056021;28;20031;-79
2023/01/12 11:13:02;;;;;;;9.20;3.72;;;;;;;17.12;60.80;100400.09;5055343;28;20072;-77
2023/01/12 11:15:29;;;;;;;13.35;3.85;;;;;;;17.12;60.80;100402.69;5055186;28;20028;-77
2023/01/12 11:18:26;;;;;;;8.20;3.40;;;;;;;17.12;60.84;100392.28;5038897;28;20111;-77
2023/01/12 11:21:06;;;;;;;9.43;3.88;;;;;;;17.11;60.92;100404.41;5046893;28;20040;-76
2023/01/12 11:24:03;;;;;;;8.18;3.63;;;;;;;17.11;60.83;100399.19;5056495;28;20100;-77
2023/01/12 11:26:29;;;;;;;7.80;3.90;;;;;;;17.11;60.75;100396.59;5056329;28;20099;-78
2023/01/12 11:29:01;;;;;;;8.68;3.67;;;;;;;17.10;60.92;100392.28;5055279;28;20075;-78
2023/01/12 11:31:38;;;;;;;8.93;3.58;;;;;;;17.10;60.79;100400.09;5054803;28;20097;-77
2023/01/12 11:34:17;;;;;;;8.60;3.50;;;;;;;17.11;60.62;100398.34;5055129;28;20471;-78
2023/01/12 11:36:59;;;;;;;9.00;3.72;;;;;;;17.10;60.74;100402.69;5055067;28;20025;-78
2023/01/12 11:39:29;;;;;;;9.77;3.30;;;;;;;17.11;60.71;100403.53;5056145;28;20439;-77
2023/01/12 11:44:50;;;;;;;7.75;3.25;;;;;;;17.12;60.72;100392.28;5056367;28;20036;-77
2023/01/12 11:47:39;;;;;;;9.02;3.28;;;;;;;17.13;60.89;100396.59;5054808;28;20052;-78
2023/01/12 11:50:32;;;;;;;8.05;3.15;;;;;;;17.13;60.90;100381.84;5055918;28;20036;-77
2023/01/12 11:52:57;;;;;;;7.82;3.42;;;;;;;17.14;60.74;100387.91;5053902;28;20078;-78
2023/01/12 11:55:48;;;;;;;7.97;2.97;;;;;;;17.15;60.64;100390.47;5022156;28;20045;-77
2023/01/12 11:58:30;;;;;;;7.13;3.35;;;;;;;17.16;60.71;100391.31;5054482;28;20025;-76
2023/01/12 12:01:17;;;;;;;7.72;3.42;;;;;;;17.15;60.88;100374.88;5054376;28;20033;-78
2023/01/12 12:03:54;;;;;;;7.18;3.08;;;;;;;17.16;60.78;100371.41;5055512;28;20112;-78
2023/01/12 12:06:32;;;;;;;7.47;3.30;;;;;;;17.17;60.90;100382.66;5055728;28;20021;-77
2023/01/12 12:09:12;;;;;;;8.43;3.45;;;;;;;17.17;60.54;100374.84;5054470;28;20047;-78
2023/01/12 12:12:05;;;;;;;8.05;3.20;;;;;;;17.18;60.59;100366.16;5054058;28;20104;-78
2023/01/12 12:14:44;;;;;;;7.45;3.60;;;;;;;17.19;60.67;100370.50;5054458;28;20120;-79